sensor_id;sensor_type;location;lat;lon;timestamp;temperature;humidity
2945;DHT22;1482;51.398;7.128;2022-09-03T00:00:10;18.10;1.00
2945;DHT22;1482;51.398;7.128;2022-09-03T00:05:47;18.00;1.00
2945;DHT22;1482;51.398;7.128;2022-09-03T00:11:04;18.00;1.00
2945;DHT22;1482;51.398;7.128;2022-09-03T00:13:37;18.00;1.00
2945;DHT22;1482;51.398;7.128;2022-09-03T00:16:07;17.90;1.00
2945;DHT22;1482;51.398;7.128;2022-09-03T00:18:40;17.90;1.00
2945;DHT22;1482;51.398;7.128;2022-09-03T00:21:10;17.90;1.00
2945;DHT22;1482;51.398;7.128;2022-09-03T00:23:41;17.90;1.00
2945;DHT22;1482;51.398;7.128;2022-09-03T00:28:46;17.90;1.00
2945;DHT22;1482;51.398;7.128;2022-09-03T00:31:20;17.80;1.00
2945;DHT22;1482;51.398;7.128;2022-09-03T00:33:49;17.80;1.00
2945;DHT22;1482;51.398;7.128;2022-09-03T00:36:18;17.80;1.00
2945;DHT22;1482;51.398;7.128;2022-09-03T00:38:45;17.80;1.00
2945;DHT22;1482;51.398;7.128;2022-09-03T00:47:01;17.90;1.00
2945;DHT22;1482;51.398;7.128;2022-09-03T01:00:26;17.80;1.00
2945;DHT22;1482;51.398;7.128;2022-09-03T01:03:11;17.80;1.00
2945;DHT22;1482;51.398;7.128;2022-09-03T01:08:48;17.80;1.00
2945;DHT22;1482;51.398;7.128;2022-09-03T01:11:50;17.80;1.00
2945;DHT22;1482;51.398;7.128;2022-09-03T01:14:30;17.70;1.00
2945;DHT22;1482;51.398;7.128;2022-09-03T01:34:09;17.70;1.00
2945;DHT22;1482;51.398;7.128;2022-09-03T01:51:29;17.60;1.00
2945;DHT22;1482;51.398;7.128;2022-09-03T01:59:26;17.60;1.00
2945;DHT22;1482;51.398;7.128;2022-09-03T02:02:04;17.60;1.00
2945;DHT22;1482;51.398;7.128;2022-09-03T02:04:32;17.60;1.00
2945;DHT22;1482;51.398;7.128;2022-09-03T02:07:00;17.60;1.00
2945;DHT22;1482;51.398;7.128;2022-09-03T02:09:26;17.70;1.00
2945;DHT22;1482;51.398;7.128;2022-09-03T02:12:01;17.70;1.00
2945;DHT22;1482;51.398;7.128;2022-09-03T02:14:29;17.60;1.00
2945;DHT22;1482;51.398;7.128;2022-09-03T02:16:57;17.50;1.00
2945;DHT22;1482;51.398;7.128;2022-09-03T02:19:26;17.60;1.00
2945;DHT22;1482;51.398;7.128;2022-09-03T02:21:54;17.50;1.00
2945;DHT22;1482;51.398;7.128;2022-09-03T02:24:20;17.40;1.00
2945;DHT22;1482;51.398;7.128;2022-09-03T02:26:46;17.40;1.00
2945;DHT22;1482;51.398;7.128;2022-09-03T02:29:13;17.40;1.00
2945;DHT22;1482;51.398;7.128;2022-09-03T02:31:39;17.30;1.00
2945;DHT22;1482;51.398;7.128;2022-09-03T02:34:05;17.20;1.00
2945;DHT22;1482;51.398;7.128;2022-09-03T02:36:37;17.20;1.00
2945;DHT22;1482;51.398;7.128;2022-09-03T02:39:04;17.10;1.00
2945;DHT22;1482;51.398;7.128;2022-09-03T02:41:30;17.10;1.00
2945;DHT22;1482;51.398;7.128;2022-09-03T02:46:58;16.90;1.00
2945;DHT22;1482;51.398;7.128;2022-09-03T02:49:24;17.00;1.00
2945;DHT22;1482;51.398;7.128;2022-09-03T02:51:49;16.90;1.00
2945;DHT22;1482;51.398;7.128;2022-09-03T02:54:15;16.80;1.00
2945;DHT22;1482;51.398;7.128;2022-09-03T02:56:41;16.80;1.00
2945;DHT22;1482;51.398;7.128;2022-09-03T02:59:08;16.70;1.00
2945;DHT22;1482;51.398;7.128;2022-09-03T03:01:34;16.80;1.00
2945;DHT22;1482;51.398;7.128;2022-09-03T03:04:01;16.80;1.00
2945;DHT22;1482;51.398;7.128;2022-09-03T03:06:26;16.70;1.00
2945;DHT22;1482;51.398;7.128;2022-09-03T03:08:52;16.70;1.00
2945;DHT22;1482;51.398;7.128;2022-09-03T03:11:20;16.60;1.00
2945;DHT22;1482;51.398;7.128;2022-09-03T03:13:47;16.50;1.00
2945;DHT22;1482;51.398;7.128;2022-09-03T03:16:14;16.40;1.00
2945;DHT22;1482;51.398;7.128;2022-09-03T03:18:40;16.40;1.00
2945;DHT22;1482;51.398;7.128;2022-09-03T03:21:10;16.30;1.00
2945;DHT22;1482;51.398;7.128;2022-09-03T03:23:37;16.40;1.00
2945;DHT22;1482;51.398;7.128;2022-09-03T03:26:05;16.30;1.00
2945;DHT22;1482;51.398;7.128;2022-09-03T03:28:32;16.30;1.00
2945;DHT22;1482;51.398;7.128;2022-09-03T03:31:10;16.30;1.00
2945;DHT22;1482;51.398;7.128;2022-09-03T03:33:37;16.30;1.00
2945;DHT22;1482;51.398;7.128;2022-09-03T03:36:14;16.40;1.00
2945;DHT22;1482;51.398;7.128;2022-09-03T03:38:40;16.30;1.00
2945;DHT22;1482;51.398;7.128;2022-09-03T03:43:33;16.30;1.00
2945;DHT22;1482;51.398;7.128;2022-09-03T03:45:59;16.30;1.00
2945;DHT22;1482;51.398;7.128;2022-09-03T03:48:25;16.20;1.00
2945;DHT22;1482;51.398;7.128;2022-09-03T03:50:51;16.10;1.00
2945;DHT22;1482;51.398;7.128;2022-09-03T03:53:17;16.00;1.00
2945;DHT22;1482;51.398;7.128;2022-09-03T03:55:48;16.00;1.00
2945;DHT22;1482;51.398;7.128;2022-09-03T03:58:18;16.10;1.00
2945;DHT22;1482;51.398;7.128;2022-09-03T04:00:44;16.10;1.00
2945;DHT22;1482;51.398;7.128;2022-09-03T04:03:12;16.10;1.00
2945;DHT22;1482;51.398;7.128;2022-09-03T04:05:37;15.90;1.00
2945;DHT22;1482;51.398;7.128;2022-09-03T04:08:03;15.90;1.00
2945;DHT22;1482;51.398;7.128;2022-09-03T04:10:28;15.90;1.00
2945;DHT22;1482;51.398;7.128;2022-09-03T04:12:54;15.90;1.00
2945;DHT22;1482;51.398;7.128;2022-09-03T04:15:20;15.80;1.00
2945;DHT22;1482;51.398;7.128;2022-09-03T04:17:46;15.80;1.00
2945;DHT22;1482;51.398;7.128;2022-09-03T04:20:11;15.80;1.00
2945;DHT22;1482;51.398;7.128;2022-09-03T04:22:37;15.60;1.00
2945;DHT22;1482;51.398;7.128;2022-09-03T04:25:03;15.50;1.00
2945;DHT22;1482;51.398;7.128;2022-09-03T04:27:28;15.60;1.00
2945;DHT22;1482;51.398;7.128;2022-09-03T04:29:54;15.60;1.00
2945;DHT22;1482;51.398;7.128;2022-09-03T04:32:20;15.60;1.00
2945;DHT22;1482;51.398;7.128;2022-09-03T04:35:04;15.60;1.00
2945;DHT22;1482;51.398;7.128;2022-09-03T04:37:31;15.50;1.00
2945;DHT22;1482;51.398;7.128;2022-09-03T04:39:57;15.50;1.00
2945;DHT22;1482;51.398;7.128;2022-09-03T04:42:23;15.60;1.00
2945;DHT22;1482;51.398;7.128;2022-09-03T04:44:49;15.60;1.00
2945;DHT22;1482;51.398;7.128;2022-09-03T04:47:14;15.60;1.00
2945;DHT22;1482;51.398;7.128;2022-09-03T04:49:40;15.60;1.00
2945;DHT22;1482;51.398;7.128;2022-09-03T04:52:06;15.50;1.00
2945;DHT22;1482;51.398;7.128;2022-09-03T04:54:32;15.50;1.00
2945;DHT22;1482;51.398;7.128;2022-09-03T04:56:57;15.50;1.00
2945;DHT22;1482;51.398;7.128;2022-09-03T04:59:23;15.60;1.00
2945;DHT22;1482;51.398;7.128;2022-09-03T05:01:48;16.10;1.00
2945;DHT22;1482;51.398;7.128;2022-09-03T05:04:14;16.40;1.00
2945;DHT22;1482;51.398;7.128;2022-09-03T05:06:39;17.00;1.00
2945;DHT22;1482;51.398;7.128;2022-09-03T05:09:05;17.60;1.00
2945;DHT22;1482;51.398;7.128;2022-09-03T05:11:31;18.20;1.00
2945;DHT22;1482;51.398;7.128;2022-09-03T05:13:58;18.70;1.00
2945;DHT22;1482;51.398;7.128;2022-09-03T05:16:25;19.30;1.00
2945;DHT22;1482;51.398;7.128;2022-09-03T05:18:54;20.00;1.00
2945;DHT22;1482;51.398;7.128;2022-09-03T05:21:21;20.80;1.00
2945;DHT22;1482;51.398;7.128;2022-09-03T05:23:48;21.70;1.00
2945;DHT22;1482;51.398;7.128;2022-09-03T05:26:17;22.80;1.00
2945;DHT22;1482;51.398;7.128;2022-09-03T05:28:43;23.90;1.00
2945;DHT22;1482;51.398;7.128;2022-09-03T05:31:17;25.00;1.00
2945;DHT22;1482;51.398;7.128;2022-09-03T05:33:48;25.70;1.00
2945;DHT22;1482;51.398;7.128;2022-09-03T05:36:17;26.90;1.00
2945;DHT22;1482;51.398;7.128;2022-09-03T05:38:43;27.50;1.00
2945;DHT22;1482;51.398;7.128;2022-09-03T05:41:10;28.30;1.00
2945;DHT22;1482;51.398;7.128;2022-09-03T05:43:37;29.10;1.00
2945;DHT22;1482;51.398;7.128;2022-09-03T05:46:04;29.80;1.00
2945;DHT22;1482;51.398;7.128;2022-09-03T05:48:31;30.40;1.00
2945;DHT22;1482;51.398;7.128;2022-09-03T05:51:05;30.50;1.00
2945;DHT22;1482;51.398;7.128;2022-09-03T05:53:33;31.10;1.00
2945;DHT22;1482;51.398;7.128;2022-09-03T05:56:02;31.40;1.00
2945;DHT22;1482;51.398;7.128;2022-09-03T05:58:32;32.70;1.00
2945;DHT22;1482;51.398;7.128;2022-09-03T06:00:59;33.20;1.00
2945;DHT22;1482;51.398;7.128;2022-09-03T06:03:24;34.30;1.00
2945;DHT22;1482;51.398;7.128;2022-09-03T06:05:51;35.10;1.00
2945;DHT22;1482;51.398;7.128;2022-09-03T06:08:17;35.80;1.00
2945;DHT22;1482;51.398;7.128;2022-09-03T06:10:43;36.50;1.00
2945;DHT22;1482;51.398;7.128;2022-09-03T06:13:09;37.20;1.00
2945;DHT22;1482;51.398;7.128;2022-09-03T06:15:34;37.70;1.00
2945;DHT22;1482;51.398;7.128;2022-09-03T06:18:00;38.50;1.00
2945;DHT22;1482;51.398;7.128;2022-09-03T06:20:26;38.20;1.00
2945;DHT22;1482;51.398;7.128;2022-09-03T06:22:53;39.60;1.00
2945;DHT22;1482;51.398;7.128;2022-09-03T06:25:19;39.90;1.00
2945;DHT22;1482;51.398;7.128;2022-09-03T06:27:44;40.20;1.00
2945;DHT22;1482;51.398;7.128;2022-09-03T06:30:12;40.10;1.00
2945;DHT22;1482;51.398;7.128;2022-09-03T06:32:45;38.10;1.00
2945;DHT22;1482;51.398;7.128;2022-09-03T06:35:10;38.60;1.00
2945;DHT22;1482;51.398;7.128;2022-09-03T06:37:40;37.60;1.00
2945;DHT22;1482;51.398;7.128;2022-09-03T06:40:06;38.30;1.00
2945;DHT22;1482;51.398;7.128;2022-09-03T06:42:33;39.10;1.00
2945;DHT22;1482;51.398;7.128;2022-09-03T06:44:59;38.30;1.00
2945;DHT22;1482;51.398;7.128;2022-09-03T06:47:24;39.10;1.00
2945;DHT22;1482;51.398;7.128;2022-09-03T06:49:50;40.30;1.00
2945;DHT22;1482;51.398;7.128;2022-09-03T06:52:16;41.10;1.00
2945;DHT22;1482;51.398;7.128;2022-09-03T06:54:41;41.20;1.00
2945;DHT22;1482;51.398;7.128;2022-09-03T06:57:07;42.10;1.00
2945;DHT22;1482;51.398;7.128;2022-09-03T06:59:32;42.50;1.00
2945;DHT22;1482;51.398;7.128;2022-09-03T07:01:58;42.70;1.00
2945;DHT22;1482;51.398;7.128;2022-09-03T07:04:25;41.50;1.00
2945;DHT22;1482;51.398;7.128;2022-09-03T07:06:51;41.20;1.00
2945;DHT22;1482;51.398;7.128;2022-09-03T07:09:17;42.30;1.00
2945;DHT22;1482;51.398;7.128;2022-09-03T07:11:43;42.70;1.00
2945;DHT22;1482;51.398;7.128;2022-09-03T07:14:12;44.30;1.00
2945;DHT22;1482;51.398;7.128;2022-09-03T07:16:38;43.50;1.00
2945;DHT22;1482;51.398;7.128;2022-09-03T07:19:06;45.00;1.00
2945;DHT22;1482;51.398;7.128;2022-09-03T07:21:37;45.70;1.00
2945;DHT22;1482;51.398;7.128;2022-09-03T07:24:04;46.50;1.00
2945;DHT22;1482;51.398;7.128;2022-09-03T07:26:32;47.50;1.00
2945;DHT22;1482;51.398;7.128;2022-09-03T07:28:59;48.40;1.00
2945;DHT22;1482;51.398;7.128;2022-09-03T07:31:33;48.90;1.00
2945;DHT22;1482;51.398;7.128;2022-09-03T07:34:00;48.80;1.00
2945;DHT22;1482;51.398;7.128;2022-09-03T07:36:28;49.00;1.00
2945;DHT22;1482;51.398;7.128;2022-09-03T07:38:56;49.30;1.00
2945;DHT22;1482;51.398;7.128;2022-09-03T07:41:23;49.50;1.00
2945;DHT22;1482;51.398;7.128;2022-09-03T07:43:50;49.40;1.00
2945;DHT22;1482;51.398;7.128;2022-09-03T07:46:21;49.30;1.00
2945;DHT22;1482;51.398;7.128;2022-09-03T07:48:52;49.50;1.00
2945;DHT22;1482;51.398;7.128;2022-09-03T07:51:20;49.90;1.00
2945;DHT22;1482;51.398;7.128;2022-09-03T07:53:47;49.10;1.00
2945;DHT22;1482;51.398;7.128;2022-09-03T07:56:13;47.40;1.00
2945;DHT22;1482;51.398;7.128;2022-09-03T07:58:40;46.30;1.00
2945;DHT22;1482;51.398;7.128;2022-09-03T08:01:12;47.10;1.00
2945;DHT22;1482;51.398;7.128;2022-09-03T08:03:41;46.10;1.00
2945;DHT22;1482;51.398;7.128;2022-09-03T08:06:07;45.30;1.00
2945;DHT22;1482;51.398;7.128;2022-09-03T08:08:34;41.80;1.00
2945;DHT22;1482;51.398;7.128;2022-09-03T08:13:45;36.80;1.00
2945;DHT22;1482;51.398;7.128;2022-09-03T08:16:12;33.20;1.00
2945;DHT22;1482;51.398;7.128;2022-09-03T08:18:38;30.70;1.00
2945;DHT22;1482;51.398;7.128;2022-09-03T08:21:13;30.00;1.00
2945;DHT22;1482;51.398;7.128;2022-09-03T08:23:41;28.90;1.00
2945;DHT22;1482;51.398;7.128;2022-09-03T08:26:08;28.10;1.00
2945;DHT22;1482;51.398;7.128;2022-09-03T08:28:34;27.20;1.00
2945;DHT22;1482;51.398;7.128;2022-09-03T08:31:17;27.20;1.00
2945;DHT22;1482;51.398;7.128;2022-09-03T08:33:46;27.30;1.00
2945;DHT22;1482;51.398;7.128;2022-09-03T08:36:29;27.10;1.00
2945;DHT22;1482;51.398;7.128;2022-09-03T08:38:57;27.20;1.00
2945;DHT22;1482;51.398;7.128;2022-09-03T08:44:13;27.00;1.00
2945;DHT22;1482;51.398;7.128;2022-09-03T08:46:47;26.80;1.00
2945;DHT22;1482;51.398;7.128;2022-09-03T08:51:55;27.00;1.00
2945;DHT22;1482;51.398;7.128;2022-09-03T08:54:25;27.30;1.00
2945;DHT22;1482;51.398;7.128;2022-09-03T08:56:52;27.50;1.00
2945;DHT22;1482;51.398;7.128;2022-09-03T08:59:18;27.20;1.00
2945;DHT22;1482;51.398;7.128;2022-09-03T09:02:05;27.30;1.00
2945;DHT22;1482;51.398;7.128;2022-09-03T09:04:52;27.00;1.00
2945;DHT22;1482;51.398;7.128;2022-09-03T09:18:51;26.90;1.00
2945;DHT22;1482;51.398;7.128;2022-09-03T09:21:42;27.00;1.00
2945;DHT22;1482;51.398;7.128;2022-09-03T09:24:46;27.10;1.00
2945;DHT22;1482;51.398;7.128;2022-09-03T09:27:14;26.80;1.00
2945;DHT22;1482;51.398;7.128;2022-09-03T09:29:44;27.20;1.00
2945;DHT22;1482;51.398;7.128;2022-09-03T09:32:11;27.50;1.00
2945;DHT22;1482;51.398;7.128;2022-09-03T09:34:39;28.00;1.00
2945;DHT22;1482;51.398;7.128;2022-09-03T09:37:09;28.30;1.00
2945;DHT22;1482;51.398;7.128;2022-09-03T09:39:36;28.30;1.00
2945;DHT22;1482;51.398;7.128;2022-09-03T09:42:07;28.30;1.00
2945;DHT22;1482;51.398;7.128;2022-09-03T09:44:34;28.30;1.00
2945;DHT22;1482;51.398;7.128;2022-09-03T09:47:03;28.00;1.00
2945;DHT22;1482;51.398;7.128;2022-09-03T09:52:15;27.70;1.00
2945;DHT22;1482;51.398;7.128;2022-09-03T09:54:43;27.80;1.00
2945;DHT22;1482;51.398;7.128;2022-09-03T09:57:23;27.60;1.00
2945;DHT22;1482;51.398;7.128;2022-09-03T10:00:03;27.70;1.00
2945;DHT22;1482;51.398;7.128;2022-09-03T10:02:33;28.00;1.00
2945;DHT22;1482;51.398;7.128;2022-09-03T10:05:23;28.30;1.00
2945;DHT22;1482;51.398;7.128;2022-09-03T10:07:58;28.50;1.00
2945;DHT22;1482;51.398;7.128;2022-09-03T10:10:25;28.60;1.00
2945;DHT22;1482;51.398;7.128;2022-09-03T10:13:13;28.70;1.00
2945;DHT22;1482;51.398;7.128;2022-09-03T10:26:18;28.50;1.00
2945;DHT22;1482;51.398;7.128;2022-09-03T10:28:50;28.50;1.00
2945;DHT22;1482;51.398;7.128;2022-09-03T10:48:21;29.10;1.00
2945;DHT22;1482;51.398;7.128;2022-09-03T10:51:03;28.50;1.00
2945;DHT22;1482;51.398;7.128;2022-09-03T10:56:28;28.10;1.00
2945;DHT22;1482;51.398;7.128;2022-09-03T11:01:44;28.20;1.00
2945;DHT22;1482;51.398;7.128;2022-09-03T11:04:21;27.80;1.00
2945;DHT22;1482;51.398;7.128;2022-09-03T11:06:53;27.70;1.00
2945;DHT22;1482;51.398;7.128;2022-09-03T11:09:36;27.30;1.00
2945;DHT22;1482;51.398;7.128;2022-09-03T11:15:22;27.50;1.00
2945;DHT22;1482;51.398;7.128;2022-09-03T11:17:55;27.50;1.00
2945;DHT22;1482;51.398;7.128;2022-09-03T11:20:24;27.60;1.00
2945;DHT22;1482;51.398;7.128;2022-09-03T11:23:00;27.60;1.00
2945;DHT22;1482;51.398;7.128;2022-09-03T11:25:31;27.70;1.00
2945;DHT22;1482;51.398;7.128;2022-09-03T11:31:05;27.80;1.00
2945;DHT22;1482;51.398;7.128;2022-09-03T11:33:40;27.80;1.00
2945;DHT22;1482;51.398;7.128;2022-09-03T11:36:10;27.90;1.00
2945;DHT22;1482;51.398;7.128;2022-09-03T11:38:36;27.90;1.00
2945;DHT22;1482;51.398;7.128;2022-09-03T11:41:13;27.70;1.00
2945;DHT22;1482;51.398;7.128;2022-09-03T11:43:41;27.50;1.00
2945;DHT22;1482;51.398;7.128;2022-09-03T11:48:50;27.40;1.00
2945;DHT22;1482;51.398;7.128;2022-09-03T11:51:32;26.70;1.00
2945;DHT22;1482;51.398;7.128;2022-09-03T11:54:06;26.20;1.00
2945;DHT22;1482;51.398;7.128;2022-09-03T11:56:33;26.10;1.00
2945;DHT22;1482;51.398;7.128;2022-09-03T11:59:22;26.10;1.00
2945;DHT22;1482;51.398;7.128;2022-09-03T12:04:18;25.70;1.00
2945;DHT22;1482;51.398;7.128;2022-09-03T12:07:11;25.40;1.00
2945;DHT22;1482;51.398;7.128;2022-09-03T12:10:03;25.50;1.00
2945;DHT22;1482;51.398;7.128;2022-09-03T12:13:01;25.60;1.00
2945;DHT22;1482;51.398;7.128;2022-09-03T12:18:49;25.40;1.00
2945;DHT22;1482;51.398;7.128;2022-09-03T12:21:18;25.60;1.00
2945;DHT22;1482;51.398;7.128;2022-09-03T12:23:49;25.50;1.00
2945;DHT22;1482;51.398;7.128;2022-09-03T12:26:20;25.70;1.00
2945;DHT22;1482;51.398;7.128;2022-09-03T12:28:52;25.40;1.00
2945;DHT22;1482;51.398;7.128;2022-09-03T12:31:23;25.50;1.00
2945;DHT22;1482;51.398;7.128;2022-09-03T12:34:02;25.70;1.00
2945;DHT22;1482;51.398;7.128;2022-09-03T12:36:41;25.80;1.00
2945;DHT22;1482;51.398;7.128;2022-09-03T12:39:08;25.90;1.00
2945;DHT22;1482;51.398;7.128;2022-09-03T12:41:34;26.00;1.00
2945;DHT22;1482;51.398;7.128;2022-09-03T12:44:00;25.90;1.00
2945;DHT22;1482;51.398;7.128;2022-09-03T12:46:28;25.80;1.00
2945;DHT22;1482;51.398;7.128;2022-09-03T12:49:03;25.50;1.00
2945;DHT22;1482;51.398;7.128;2022-09-03T12:51:39;25.40;1.00
2945;DHT22;1482;51.398;7.128;2022-09-03T12:54:08;25.10;1.00
2945;DHT22;1482;51.398;7.128;2022-09-03T12:56:39;24.90;1.00
2945;DHT22;1482;51.398;7.128;2022-09-03T12:59:17;24.70;1.00
2945;DHT22;1482;51.398;7.128;2022-09-03T13:01:50;24.80;1.00
2945;DHT22;1482;51.398;7.128;2022-09-03T13:04:26;24.90;1.00
2945;DHT22;1482;51.398;7.128;2022-09-03T13:07:03;25.20;1.00
2945;DHT22;1482;51.398;7.128;2022-09-03T13:09:32;25.30;1.00
2945;DHT22;1482;51.398;7.128;2022-09-03T13:11:59;25.40;1.00
2945;DHT22;1482;51.398;7.128;2022-09-03T13:14:29;25.60;1.00
2945;DHT22;1482;51.398;7.128;2022-09-03T13:17:06;25.90;1.00
2945;DHT22;1482;51.398;7.128;2022-09-03T13:20:01;26.10;1.00
2945;DHT22;1482;51.398;7.128;2022-09-03T13:22:55;26.40;1.00
2945;DHT22;1482;51.398;7.128;2022-09-03T13:30:37;26.40;1.00
2945;DHT22;1482;51.398;7.128;2022-09-03T13:33:17;26.70;1.00
2945;DHT22;1482;51.398;7.128;2022-09-03T13:35:58;27.10;1.00
2945;DHT22;1482;51.398;7.128;2022-09-03T13:38:34;27.30;1.00
2945;DHT22;1482;51.398;7.128;2022-09-03T13:41:13;27.60;1.00
2945;DHT22;1482;51.398;7.128;2022-09-03T13:43:50;27.80;1.00
2945;DHT22;1482;51.398;7.128;2022-09-03T13:48:50;27.40;1.00
2945;DHT22;1482;51.398;7.128;2022-09-03T13:51:46;27.50;1.00
2945;DHT22;1482;51.398;7.128;2022-09-03T13:54:26;27.70;1.00
2945;DHT22;1482;51.398;7.128;2022-09-03T13:57:01;27.90;1.00
2945;DHT22;1482;51.398;7.128;2022-09-03T14:08:03;27.50;1.00
2945;DHT22;1482;51.398;7.128;2022-09-03T14:10:51;27.40;1.00
2945;DHT22;1482;51.398;7.128;2022-09-03T14:16:28;27.60;1.00
2945;DHT22;1482;51.398;7.128;2022-09-03T14:19:15;27.40;1.00
2945;DHT22;1482;51.398;7.128;2022-09-03T14:22:06;27.00;1.00
2945;DHT22;1482;51.398;7.128;2022-09-03T14:24:43;26.80;1.00
2945;DHT22;1482;51.398;7.128;2022-09-03T14:27:10;26.80;1.00
2945;DHT22;1482;51.398;7.128;2022-09-03T14:29:36;26.90;1.00
2945;DHT22;1482;51.398;7.128;2022-09-03T14:32:23;26.90;1.00
2945;DHT22;1482;51.398;7.128;2022-09-03T14:35:16;27.00;1.00
2945;DHT22;1482;51.398;7.128;2022-09-03T14:40:41;26.60;1.00
2945;DHT22;1482;51.398;7.128;2022-09-03T14:56:39;26.50;1.00
2945;DHT22;1482;51.398;7.128;2022-09-03T14:59:26;26.40;1.00
2945;DHT22;1482;51.398;7.128;2022-09-03T15:05:08;26.50;1.00
2945;DHT22;1482;51.398;7.128;2022-09-03T15:10:31;26.70;1.00
2945;DHT22;1482;51.398;7.128;2022-09-03T15:13:09;26.60;1.00
2945;DHT22;1482;51.398;7.128;2022-09-03T15:18:21;26.70;1.00
2945;DHT22;1482;51.398;7.128;2022-09-03T15:21:00;26.80;1.00
2945;DHT22;1482;51.398;7.128;2022-09-03T15:37:29;26.60;1.00
2945;DHT22;1482;51.398;7.128;2022-09-03T15:40:26;26.70;1.00
2945;DHT22;1482;51.398;7.128;2022-09-03T15:43:06;26.70;1.00
2945;DHT22;1482;51.398;7.128;2022-09-03T15:45:40;26.80;1.00
2945;DHT22;1482;51.398;7.128;2022-09-03T15:51:04;26.70;1.00
2945;DHT22;1482;51.398;7.128;2022-09-03T15:58:47;26.50;1.00
2945;DHT22;1482;51.398;7.128;2022-09-03T16:04:16;26.40;1.00
2945;DHT22;1482;51.398;7.128;2022-09-03T16:06:58;26.10;1.00
2945;DHT22;1482;51.398;7.128;2022-09-03T16:09:34;25.90;1.00
2945;DHT22;1482;51.398;7.128;2022-09-03T16:12:21;25.80;1.00
2945;DHT22;1482;51.398;7.128;2022-09-03T16:14:59;25.70;1.00
2945;DHT22;1482;51.398;7.128;2022-09-03T16:18:14;25.80;1.00
2945;DHT22;1482;51.398;7.128;2022-09-03T16:23:04;25.60;1.00
2945;DHT22;1482;51.398;7.128;2022-09-03T16:25:35;25.50;1.00
2945;DHT22;1482;51.398;7.128;2022-09-03T16:28:31;25.20;1.00
2945;DHT22;1482;51.398;7.128;2022-09-03T16:39:36;24.70;1.00
2945;DHT22;1482;51.398;7.128;2022-09-03T16:42:25;24.70;1.00
2945;DHT22;1482;51.398;7.128;2022-09-03T16:53:21;24.60;1.00
2945;DHT22;1482;51.398;7.128;2022-09-03T16:56:09;24.40;1.00
2945;DHT22;1482;51.398;7.128;2022-09-03T17:01:36;24.30;1.00
2945;DHT22;1482;51.398;7.128;2022-09-03T17:10:22;24.10;1.00
2945;DHT22;1482;51.398;7.128;2022-09-03T17:19:30;23.70;1.00
2945;DHT22;1482;51.398;7.128;2022-09-03T17:24:37;23.50;1.00
2945;DHT22;1482;51.398;7.128;2022-09-03T17:32:43;23.50;1.00
2945;DHT22;1482;51.398;7.128;2022-09-03T17:35:35;23.50;1.00
2945;DHT22;1482;51.398;7.128;2022-09-03T17:38:23;23.30;1.00
2945;DHT22;1482;51.398;7.128;2022-09-03T17:44:03;23.30;1.00
2945;DHT22;1482;51.398;7.128;2022-09-03T17:49:48;23.20;1.00
2945;DHT22;1482;51.398;7.128;2022-09-03T17:52:52;23.10;1.00
2945;DHT22;1482;51.398;7.128;2022-09-03T17:55:35;23.10;1.00
2945;DHT22;1482;51.398;7.128;2022-09-03T17:58:10;23.00;1.00
2945;DHT22;1482;51.398;7.128;2022-09-03T18:01:00;23.00;1.00
2945;DHT22;1482;51.398;7.128;2022-09-03T18:03:38;22.90;1.00
2945;DHT22;1482;51.398;7.128;2022-09-03T18:06:10;22.90;1.00
2945;DHT22;1482;51.398;7.128;2022-09-03T18:11:38;22.80;1.00
2945;DHT22;1482;51.398;7.128;2022-09-03T18:17:32;22.70;1.00
2945;DHT22;1482;51.398;7.128;2022-09-03T18:20:02;22.70;1.00
2945;DHT22;1482;51.398;7.128;2022-09-03T18:25:52;22.40;1.00
2945;DHT22;1482;51.398;7.128;2022-09-03T18:28:47;22.30;1.00
2945;DHT22;1482;51.398;7.128;2022-09-03T18:31:33;22.30;1.00
2945;DHT22;1482;51.398;7.128;2022-09-03T18:34:20;22.20;1.00
2945;DHT22;1482;51.398;7.128;2022-09-03T18:37:06;22.10;1.00
2945;DHT22;1482;51.398;7.128;2022-09-03T18:39:50;22.20;1.00
2945;DHT22;1482;51.398;7.128;2022-09-03T18:46:17;22.10;1.00
2945;DHT22;1482;51.398;7.128;2022-09-03T18:49:25;22.10;1.00
2945;DHT22;1482;51.398;7.128;2022-09-03T18:52:20;22.00;1.00
2945;DHT22;1482;51.398;7.128;2022-09-03T18:55:43;22.00;1.00
2945;DHT22;1482;51.398;7.128;2022-09-03T19:01:40;21.80;1.00
2945;DHT22;1482;51.398;7.128;2022-09-03T19:05:10;21.70;1.00
2945;DHT22;1482;51.398;7.128;2022-09-03T19:08:15;21.70;1.00
2945;DHT22;1482;51.398;7.128;2022-09-03T19:11:27;21.60;1.00
2945;DHT22;1482;51.398;7.128;2022-09-03T19:14:48;21.40;1.00
2945;DHT22;1482;51.398;7.128;2022-09-03T19:18:02;21.30;1.00
2945;DHT22;1482;51.398;7.128;2022-09-03T19:21:00;21.10;1.00
2945;DHT22;1482;51.398;7.128;2022-09-03T19:23:45;21.10;1.00
2945;DHT22;1482;51.398;7.128;2022-09-03T19:26:43;20.90;1.00
2945;DHT22;1482;51.398;7.128;2022-09-03T19:36:08;20.60;1.00
2945;DHT22;1482;51.398;7.128;2022-09-03T19:42:24;20.50;1.00
2945;DHT22;1482;51.398;7.128;2022-09-03T19:45:21;20.50;1.00
2945;DHT22;1482;51.398;7.128;2022-09-03T19:48:19;20.50;1.00
2945;DHT22;1482;51.398;7.128;2022-09-03T19:51:18;20.50;1.00
2945;DHT22;1482;51.398;7.128;2022-09-03T19:54:05;20.60;1.00
2945;DHT22;1482;51.398;7.128;2022-09-03T19:56:51;20.60;1.00
2945;DHT22;1482;51.398;7.128;2022-09-03T19:59:39;20.60;1.00
2945;DHT22;1482;51.398;7.128;2022-09-03T20:02:24;20.60;1.00
2945;DHT22;1482;51.398;7.128;2022-09-03T20:05:11;20.60;1.00
2945;DHT22;1482;51.398;7.128;2022-09-03T20:07:58;20.50;1.00
2945;DHT22;1482;51.398;7.128;2022-09-03T20:10:44;20.40;1.00
2945;DHT22;1482;51.398;7.128;2022-09-03T20:13:14;20.40;1.00
2945;DHT22;1482;51.398;7.128;2022-09-03T20:23:36;20.00;1.00
2945;DHT22;1482;51.398;7.128;2022-09-03T20:26:08;20.00;1.00
2945;DHT22;1482;51.398;7.128;2022-09-03T20:31:22;20.10;1.00
2945;DHT22;1482;51.398;7.128;2022-09-03T20:39:33;20.00;1.00
2945;DHT22;1482;51.398;7.128;2022-09-03T20:45:18;20.00;1.00
2945;DHT22;1482;51.398;7.128;2022-09-03T20:47:59;20.00;1.00
2945;DHT22;1482;51.398;7.128;2022-09-03T20:55:42;19.50;1.00
2945;DHT22;1482;51.398;7.128;2022-09-03T20:58:41;19.60;1.00
2945;DHT22;1482;51.398;7.128;2022-09-03T21:01:17;19.60;1.00
2945;DHT22;1482;51.398;7.128;2022-09-03T21:04:34;19.70;1.00
2945;DHT22;1482;51.398;7.128;2022-09-03T21:12:41;19.80;1.00
2945;DHT22;1482;51.398;7.128;2022-09-03T21:25:37;19.70;1.00
2945;DHT22;1482;51.398;7.128;2022-09-03T21:28:24;19.60;1.00
2945;DHT22;1482;51.398;7.128;2022-09-03T21:30:58;19.60;1.00
2945;DHT22;1482;51.398;7.128;2022-09-03T21:33:27;19.60;1.00
2945;DHT22;1482;51.398;7.128;2022-09-03T21:36:09;19.50;1.00
2945;DHT22;1482;51.398;7.128;2022-09-03T21:38:37;19.60;1.00
2945;DHT22;1482;51.398;7.128;2022-09-03T21:43:55;19.50;1.00
2945;DHT22;1482;51.398;7.128;2022-09-03T21:46:40;19.50;1.00
2945;DHT22;1482;51.398;7.128;2022-09-03T21:49:12;19.40;1.00
2945;DHT22;1482;51.398;7.128;2022-09-03T21:51:51;19.40;1.00
2945;DHT22;1482;51.398;7.128;2022-09-03T21:54:27;19.40;1.00
2945;DHT22;1482;51.398;7.128;2022-09-03T21:57:09;19.40;1.00
2945;DHT22;1482;51.398;7.128;2022-09-03T22:00:12;19.40;1.00
2945;DHT22;1482;51.398;7.128;2022-09-03T22:02:44;19.40;1.00
2945;DHT22;1482;51.398;7.128;2022-09-03T22:05:14;19.20;1.00
2945;DHT22;1482;51.398;7.128;2022-09-03T22:10:31;19.20;1.00
2945;DHT22;1482;51.398;7.128;2022-09-03T22:15:37;19.10;1.00
2945;DHT22;1482;51.398;7.128;2022-09-03T22:18:29;19.10;1.00
2945;DHT22;1482;51.398;7.128;2022-09-03T22:24:05;19.10;1.00
2945;DHT22;1482;51.398;7.128;2022-09-03T22:26:43;19.00;1.00
2945;DHT22;1482;51.398;7.128;2022-09-03T22:32:30;19.10;1.00
2945;DHT22;1482;51.398;7.128;2022-09-03T22:40:36;19.00;1.00
2945;DHT22;1482;51.398;7.128;2022-09-03T22:48:27;19.10;1.00
2945;DHT22;1482;51.398;7.128;2022-09-03T22:51:00;19.00;1.00
2945;DHT22;1482;51.398;7.128;2022-09-03T22:56:07;19.10;1.00